createdAt,value
2018-09-14T00:01:48.825Z,17.70
2018-09-14T00:04:18.172Z,16.30
2018-09-14T00:06:49.911Z,16.20
2018-09-14T00:09:19.396Z,16.20
2018-09-14T00:11:48.699Z,16.10
2018-09-14T00:14:17.875Z,16.00
2018-09-14T00:16:49.223Z,16.00
2018-09-14T00:19:18.313Z,16.00
2018-09-14T00:21:47.777Z,16.00
2018-09-14T00:24:16.925Z,15.90
2018-09-14T00:26:46.088Z,15.90
2018-09-14T00:29:15.871Z,15.90
2018-09-14T00:31:45.280Z,15.90
2018-09-14T00:34:14.380Z,15.80
2018-09-14T00:36:43.753Z,15.80
2018-09-14T00:39:13.796Z,15.80
2018-09-14T00:41:43.406Z,15.80
2018-09-14T00:44:13.162Z,15.80
2018-09-14T00:46:42.784Z,15.90
2018-09-14T00:49:11.978Z,15.50
2018-09-14T00:51:41.292Z,15.60
2018-09-14T00:54:10.800Z,15.70
2018-09-14T00:56:40.112Z,15.70
2018-09-14T00:59:09.212Z,15.70
2018-09-14T01:01:38.784Z,15.60
2018-09-14T01:04:07.869Z,15.70
2018-09-14T01:06:37.200Z,15.80
2018-09-14T01:09:13.354Z,15.70
2018-09-14T01:11:42.653Z,15.60
2018-09-14T01:14:11.835Z,15.40
2018-09-14T01:16:41.068Z,15.40
2018-09-14T01:19:10.131Z,15.50
2018-09-14T01:21:39.844Z,15.40
2018-09-14T01:24:09.152Z,15.40
2018-09-14T01:26:38.730Z,15.40
2018-09-14T01:29:08.061Z,15.30
2018-09-14T01:31:38.773Z,15.40
2018-09-14T01:34:08.187Z,15.30
2018-09-14T01:36:37.440Z,15.10
2018-09-14T01:39:09.766Z,15.00
2018-09-14T01:41:39.329Z,14.90
2018-09-14T01:44:09.068Z,15.00
2018-09-14T01:46:38.812Z,15.10
2018-09-14T01:49:08.267Z,15.00
2018-09-14T01:51:37.750Z,15.00
2018-09-14T01:54:06.913Z,15.10
2018-09-14T01:56:36.565Z,15.00
2018-09-14T01:59:06.336Z,15.00
2018-09-14T02:01:36.736Z,15.00
2018-09-14T02:04:06.330Z,14.90
2018-09-14T02:06:35.544Z,14.90
2018-09-14T02:09:06.218Z,14.90
2018-09-14T02:11:36.001Z,14.90
2018-09-14T02:14:05.404Z,14.80
2018-09-14T02:16:34.652Z,14.80
2018-09-14T02:19:06.165Z,14.80
2018-09-14T02:21:35.932Z,14.90
2018-09-14T02:24:05.276Z,15.00
2018-09-14T02:26:34.639Z,15.00
2018-09-14T02:29:04.707Z,15.00
2018-09-14T02:31:34.320Z,15.00
2018-09-14T02:34:03.794Z,15.10
2018-09-14T02:36:33.477Z,15.10
2018-09-14T02:39:03.421Z,15.10
2018-09-14T02:41:32.877Z,15.10
2018-09-14T02:44:02.024Z,15.10
2018-09-14T02:46:31.631Z,15.20
2018-09-14T02:49:00.901Z,15.20
2018-09-14T02:51:30.271Z,14.40
2018-09-14T02:53:59.769Z,15.20
2018-09-14T02:56:29.437Z,15.10
2018-09-14T02:58:58.562Z,15.00
2018-09-14T03:01:27.926Z,15.10
2018-09-14T03:03:57.544Z,15.10
2018-09-14T03:06:26.872Z,15.20
2018-09-14T03:08:55.980Z,15.30
2018-09-14T03:11:26.405Z,15.40
2018-09-14T03:13:55.664Z,15.70
2018-09-14T03:16:25.682Z,15.50
2018-09-14T03:18:55.056Z,15.40
2018-09-14T03:21:24.367Z,15.50
2018-09-14T03:23:53.494Z,15.50
2018-09-14T03:26:22.905Z,15.50
2018-09-14T03:28:52.764Z,15.50
2018-09-14T03:31:22.022Z,15.50
2018-09-14T03:33:52.479Z,15.60
2018-09-14T03:36:22.851Z,15.60
2018-09-14T03:38:52.026Z,15.70
2018-09-14T03:41:21.451Z,15.60
2018-09-14T03:43:50.961Z,15.70
2018-09-14T03:46:21.112Z,15.80
2018-09-14T03:48:50.236Z,15.80
2018-09-14T03:51:19.683Z,15.60
2018-09-14T03:53:48.829Z,15.50
2018-09-14T03:56:18.824Z,15.50
2018-09-14T03:58:48.060Z,15.60
2018-09-14T04:01:18.933Z,16.70
2018-09-14T04:03:49.073Z,15.50
2018-09-14T04:06:18.350Z,15.50
2018-09-14T04:08:47.507Z,15.50
2018-09-14T04:11:16.890Z,15.60
2018-09-14T04:13:46.124Z,15.60
2018-09-14T04:16:15.625Z,15.70
2018-09-14T04:18:53.889Z,15.70
2018-09-14T04:21:23.944Z,15.70
2018-09-14T04:23:53.392Z,15.80
2018-09-14T04:26:22.713Z,15.80
2018-09-14T04:28:52.102Z,15.80
2018-09-14T04:31:21.565Z,15.70
2018-09-14T04:33:50.693Z,15.80
2018-09-14T04:36:20.313Z,15.80
2018-09-14T04:38:49.520Z,15.90
2018-09-14T04:41:19.203Z,15.80
2018-09-14T04:43:48.491Z,15.80
2018-09-14T04:46:17.761Z,16.90
2018-09-14T04:48:47.485Z,15.80
2018-09-14T04:51:16.876Z,15.90
2018-09-14T04:53:46.069Z,15.90
2018-09-14T04:56:15.203Z,15.90
2018-09-14T04:58:44.727Z,16.00
2018-09-14T05:01:14.145Z,16.00
2018-09-14T05:03:43.304Z,15.90
2018-09-14T05:06:12.667Z,14.80
2018-09-14T05:08:41.863Z,15.80
2018-09-14T05:11:12.785Z,15.80
2018-09-14T05:13:42.029Z,15.80
2018-09-14T05:16:11.948Z,15.80
2018-09-14T05:18:41.261Z,15.70
2018-09-14T05:21:10.638Z,15.60
2018-09-14T05:23:40.875Z,15.70
2018-09-14T05:26:11.880Z,15.70
2018-09-14T05:28:58.593Z,15.70
2018-09-14T05:31:32.195Z,15.70
2018-09-14T05:34:02.124Z,15.70
2018-09-14T05:36:32.513Z,15.80
2018-09-14T05:39:02.129Z,15.80
2018-09-14T05:41:31.440Z,15.10
2018-09-14T05:44:10.388Z,15.90
2018-09-14T05:46:44.476Z,16.00
2018-09-14T05:49:17.561Z,16.00
2018-09-14T05:51:49.244Z,16.10
2018-09-14T05:54:20.838Z,16.20
2018-09-14T05:56:58.246Z,16.20
2018-09-14T05:59:38.078Z,14.50
2018-09-14T06:02:08.095Z,16.20
2018-09-14T06:04:38.067Z,16.20
2018-09-14T06:07:09.083Z,16.20
2018-09-14T06:09:38.963Z,16.20
2018-09-14T06:12:08.836Z,16.30
2018-09-14T06:14:39.259Z,16.30
2018-09-14T06:17:08.958Z,16.30
2018-09-14T06:19:38.643Z,16.30
2018-09-14T06:22:11.141Z,16.40
2018-09-14T06:24:40.548Z,16.50
2018-09-14T06:27:10.367Z,16.60
2018-09-14T06:29:39.776Z,16.60
2018-09-14T06:32:09.563Z,16.90
2018-09-14T06:34:39.598Z,17.00
2018-09-14T06:37:13.406Z,17.00
2018-09-14T06:39:45.889Z,17.10
2018-09-14T06:42:16.246Z,17.20
2018-09-14T06:44:46.830Z,17.20
2018-09-14T06:47:17.347Z,17.20
2018-09-14T06:49:49.226Z,17.20
2018-09-14T06:52:25.521Z,17.10
2018-09-14T06:54:59.699Z,17.10
2018-09-14T06:57:30.676Z,17.10
2018-09-14T07:00:01.959Z,17.20
2018-09-14T07:02:31.368Z,17.30
2018-09-14T07:05:02.116Z,17.50
2018-09-14T07:07:31.793Z,17.70
2018-09-14T07:10:02.400Z,17.80
2018-09-14T07:12:33.616Z,18.00
2018-09-14T07:15:03.156Z,17.90
2018-09-14T07:17:36.998Z,18.00
2018-09-14T07:20:06.330Z,18.20
2018-09-14T07:22:38.336Z,18.50
2018-09-14T07:25:14.010Z,18.70
2018-09-14T07:27:44.096Z,18.80
2018-09-14T07:30:19.662Z,18.20
2018-09-14T07:32:55.229Z,18.90
2018-09-14T07:35:27.197Z,19.10
2018-09-14T07:37:57.561Z,18.10
2018-09-14T07:40:29.720Z,19.30
2018-09-14T07:43:01.846Z,19.30
2018-09-14T07:45:34.114Z,19.40
2018-09-14T07:48:16.354Z,19.40
2018-09-14T07:50:54.471Z,19.40
2018-09-14T07:53:24.553Z,19.40
2018-09-14T07:56:03.241Z,19.20
2018-09-14T07:58:36.356Z,18.80
2018-09-14T08:01:14.768Z,18.80
2018-09-14T08:03:47.866Z,18.90
2018-09-14T08:06:27.575Z,18.70
2018-09-14T08:09:04.307Z,19.00
2018-09-14T08:12:12.413Z,19.00
2018-09-14T08:14:47.569Z,19.10
2018-09-14T08:17:23.232Z,18.60
2018-09-14T08:19:55.698Z,18.50
2018-09-14T08:22:25.365Z,18.50
2018-09-14T08:25:10.359Z,18.20
2018-09-14T08:27:43.339Z,18.00
2018-09-14T08:30:15.306Z,17.90
2018-09-14T08:32:45.413Z,18.10
2018-09-14T08:35:16.257Z,18.40
2018-09-14T08:37:47.458Z,18.70
2018-09-14T08:40:17.364Z,18.80
2018-09-14T08:42:47.010Z,18.80
2018-09-14T08:45:18.581Z,18.50
2018-09-14T08:47:48.344Z,18.50
2018-09-14T08:50:25.418Z,18.80
2018-09-14T08:52:56.931Z,19.00
2018-09-14T08:55:31.360Z,18.90
2018-09-14T08:58:02.377Z,18.90
2018-09-14T09:00:34.567Z,19.40
2018-09-14T09:03:11.635Z,19.80
2018-09-14T09:05:41.562Z,20.20
2018-09-14T09:08:14.522Z,20.40
2018-09-14T09:10:44.433Z,20.60
2018-09-14T09:13:14.560Z,20.70
2018-09-14T09:15:44.045Z,20.10
2018-09-14T09:18:14.832Z,20.10
2018-09-14T09:20:44.327Z,20.40
2018-09-14T09:23:17.007Z,20.70
2018-09-14T09:25:49.443Z,20.80
2018-09-14T09:28:28.338Z,20.80
2018-09-14T09:31:06.170Z,20.60
2018-09-14T09:33:42.951Z,20.50
2018-09-14T09:36:17.297Z,20.80
2018-09-14T09:38:55.763Z,20.50
2018-09-14T09:41:26.344Z,20.50
2018-09-14T09:44:00.884Z,20.30
2018-09-14T09:46:30.177Z,20.00
2018-09-14T09:48:59.677Z,20.00
2018-09-14T09:51:35.049Z,19.90
2018-09-14T09:54:06.389Z,20.30
2018-09-14T09:56:36.542Z,20.60
2018-09-14T09:59:07.323Z,20.90
2018-09-14T10:03:51.890Z,21.00
2018-09-14T10:06:27.652Z,20.50
2018-09-14T10:09:05.346Z,21.10
2018-09-14T10:11:39.124Z,21.10
2018-09-14T10:14:13.090Z,21.50
2018-09-14T10:17:14.764Z,21.80
2018-09-14T10:19:56.776Z,21.90
2018-09-14T10:22:30.284Z,21.50
2018-09-14T10:25:01.417Z,20.80
2018-09-14T10:27:41.307Z,20.00
2018-09-14T10:30:13.373Z,20.50
2018-09-14T10:32:45.169Z,21.10
2018-09-14T10:35:29.317Z,21.50
2018-09-14T10:38:01.714Z,21.50
2018-09-14T10:40:35.104Z,21.20
2018-09-14T10:43:05.882Z,21.30
2018-09-14T10:45:37.195Z,21.50
2018-09-14T10:48:07.196Z,20.10
2018-09-14T10:50:37.963Z,20.80
2018-09-14T10:53:13.407Z,20.60
2018-09-14T10:55:47.654Z,20.90
2018-09-14T10:58:27.057Z,21.30
2018-09-14T11:00:57.379Z,21.50
2018-09-14T11:03:27.878Z,21.50
2018-09-14T11:06:08.229Z,21.60
2018-09-14T11:08:38.209Z,21.80
2018-09-14T11:11:09.022Z,21.20
2018-09-14T11:13:42.653Z,20.70
2018-09-14T11:16:13.265Z,20.90
2018-09-14T11:18:46.513Z,21.20
2018-09-14T11:21:15.720Z,21.40
2018-09-14T11:23:46.382Z,21.40
2018-09-14T11:26:16.661Z,21.10
2018-09-14T11:28:50.885Z,20.90
2018-09-14T11:31:30.832Z,21.10
2018-09-14T11:34:02.308Z,21.40
2018-09-14T11:36:32.260Z,21.30
2018-09-14T11:39:05.979Z,21.30
2018-09-14T11:41:36.500Z,21.40
2018-09-14T11:44:08.263Z,21.50
2018-09-14T11:46:37.697Z,21.20
2018-09-14T11:49:07.253Z,20.90
2018-09-14T11:51:37.652Z,20.70
2018-09-14T11:54:09.430Z,20.10
2018-09-14T11:56:40.276Z,20.90
2018-09-14T11:59:12.737Z,21.10
2018-09-14T12:01:45.159Z,21.00
2018-09-14T12:04:24.125Z,21.30
2018-09-14T12:06:54.747Z,21.00
2018-09-14T12:09:31.261Z,21.00
2018-09-14T12:12:01.816Z,20.80
2018-09-14T12:14:34.776Z,20.80
2018-09-14T12:17:05.390Z,20.10
2018-09-14T12:19:36.224Z,20.70
2018-09-14T12:22:06.918Z,20.90
2018-09-14T12:24:39.425Z,21.10
2018-09-14T12:27:11.605Z,21.90
2018-09-14T12:29:45.341Z,21.40
2018-09-14T12:32:15.556Z,21.30
2018-09-14T12:34:45.457Z,21.60
2018-09-14T12:37:15.223Z,21.50
2018-09-14T12:39:53.105Z,21.70
2018-09-14T12:42:24.503Z,21.30
2018-09-14T12:44:54.356Z,22.30
2018-09-14T12:47:24.384Z,21.00
2018-09-14T12:49:54.722Z,20.80
2018-09-14T12:52:24.723Z,21.00
2018-09-14T12:54:55.240Z,21.10
2018-09-14T12:57:26.810Z,21.60
2018-09-14T12:59:56.688Z,21.90
2018-09-14T13:02:28.653Z,22.10
2018-09-14T13:04:58.604Z,21.80
2018-09-14T13:07:29.607Z,21.80
2018-09-14T13:10:00.068Z,21.80
2018-09-14T13:12:29.836Z,22.00
2018-09-14T13:15:02.732Z,20.80
2018-09-14T13:17:32.173Z,21.40
2018-09-14T13:20:03.217Z,21.10
2018-09-14T13:22:33.378Z,21.10
2018-09-14T13:25:03.948Z,20.90
2018-09-14T13:27:35.841Z,21.00
2018-09-14T13:30:07.064Z,21.50
2018-09-14T13:32:41.496Z,21.10
2018-09-14T13:35:12.331Z,22.00
2018-09-14T13:37:42.849Z,21.00
2018-09-14T13:40:14.017Z,20.90
2018-09-14T13:42:47.514Z,21.30
2018-09-14T13:45:20.827Z,21.70
2018-09-14T13:47:51.878Z,22.10
2018-09-14T13:50:28.435Z,22.40
2018-09-14T13:52:58.033Z,22.50
2018-09-14T13:55:27.629Z,22.40
2018-09-14T13:57:57.792Z,21.60
2018-09-14T14:00:27.564Z,22.20
2018-09-14T14:02:58.456Z,22.20
2018-09-14T14:05:30.198Z,22.10
2018-09-14T14:08:04.802Z,22.40
2018-09-14T14:10:34.738Z,22.50
2018-09-14T14:13:05.288Z,22.60
2018-09-14T14:15:36.148Z,22.80
2018-09-14T14:18:05.824Z,22.50
2018-09-14T14:20:35.476Z,22.30
2018-09-14T14:23:05.076Z,22.70
2018-09-14T14:25:35.591Z,23.00
2018-09-14T14:28:06.849Z,23.10
2018-09-14T14:30:39.922Z,23.00
2018-09-14T14:33:10.207Z,23.10
2018-09-14T14:35:41.737Z,22.90
2018-09-14T14:38:17.574Z,22.60
2018-09-14T14:40:46.915Z,22.50
2018-09-14T14:43:16.176Z,22.40
2018-09-14T14:45:45.781Z,22.50
2018-09-14T14:48:15.189Z,22.40
2018-09-14T14:50:46.170Z,22.10
2018-09-14T14:53:17.494Z,21.40
2018-09-14T14:55:47.321Z,21.00
2018-09-14T14:58:18.874Z,21.40
2018-09-14T15:00:50.241Z,21.80
2018-09-14T15:03:21.238Z,22.00
2018-09-14T15:05:51.865Z,21.70
2018-09-14T15:08:22.482Z,21.50
2018-09-14T15:10:52.783Z,21.70
2018-09-14T15:13:22.408Z,21.60
2018-09-14T15:15:55.445Z,21.60
2018-09-14T15:18:25.212Z,21.70
2018-09-14T15:20:54.602Z,21.50
2018-09-14T15:23:26.897Z,21.40
2018-09-14T15:25:57.253Z,21.40
2018-09-14T15:28:29.434Z,21.50
2018-09-14T15:31:01.568Z,21.50
2018-09-14T15:33:33.832Z,23.20
2018-09-14T15:36:06.108Z,21.30
2018-09-14T15:38:37.503Z,21.10
2018-09-14T15:41:06.760Z,21.00
2018-09-14T15:43:42.359Z,20.80
2018-09-14T15:46:20.123Z,20.70
2018-09-14T15:48:54.536Z,20.80
2018-09-14T15:51:30.362Z,20.90
2018-09-14T15:54:01.848Z,21.10
2018-09-14T15:56:36.237Z,21.10
2018-09-14T16:01:51.914Z,21.30
2018-09-14T16:04:21.617Z,21.00
2018-09-14T16:06:53.818Z,21.10
2018-09-14T16:09:24.440Z,21.30
2018-09-14T16:11:57.212Z,21.60
2018-09-14T16:14:27.097Z,21.00
2018-09-14T16:17:00.325Z,21.20
2018-09-14T16:19:30.872Z,21.40
2018-09-14T16:22:01.642Z,21.40
2018-09-14T16:24:31.834Z,21.30
2018-09-14T16:27:01.294Z,20.60
2018-09-14T16:29:32.222Z,21.80
2018-09-14T16:32:01.789Z,21.70
2018-09-14T16:34:31.261Z,21.70
2018-09-14T16:37:01.696Z,21.60
2018-09-14T16:39:32.021Z,22.40
2018-09-14T16:42:02.521Z,21.20
2018-09-14T16:44:33.160Z,21.00
2018-09-14T16:47:05.765Z,21.10
2018-09-14T16:49:40.236Z,21.20
2018-09-14T16:52:09.469Z,20.90
2018-09-14T16:54:38.592Z,21.90
2018-09-14T16:57:07.864Z,20.90
2018-09-14T16:59:39.584Z,20.70
2018-09-14T17:02:12.230Z,20.50
2018-09-14T17:04:44.342Z,20.50
2018-09-14T17:07:16.424Z,20.50
2018-09-14T17:09:45.921Z,20.60
2018-09-14T17:12:16.180Z,20.50
2018-09-14T17:14:45.993Z,20.40
2018-09-14T17:17:15.309Z,20.10
2018-09-14T17:19:45.599Z,20.10
2018-09-14T17:22:19.224Z,20.20
2018-09-14T17:24:50.049Z,20.10
2018-09-14T17:27:24.888Z,20.10
2018-09-14T17:29:55.175Z,20.30
2018-09-14T17:32:25.500Z,20.40
2018-09-14T17:34:57.023Z,20.50
2018-09-14T17:37:28.648Z,20.50
2018-09-14T17:39:58.775Z,20.60
2018-09-14T17:42:29.277Z,20.50
2018-09-14T17:45:01.372Z,20.40
2018-09-14T17:47:37.236Z,20.30
2018-09-14T17:50:11.060Z,19.50
2018-09-14T17:52:42.363Z,20.50
2018-09-14T17:55:12.966Z,20.60
2018-09-14T17:57:43.542Z,20.60
2018-09-14T18:00:21.378Z,20.60
2018-09-14T18:02:50.537Z,20.50
2018-09-14T18:05:19.934Z,20.40
2018-09-14T18:07:49.637Z,20.30
2018-09-14T18:10:22.800Z,20.20
2018-09-14T18:12:54.179Z,20.10
2018-09-14T18:15:25.561Z,20.10
2018-09-14T18:17:57.515Z,20.00
2018-09-14T18:20:29.827Z,19.90
2018-09-14T18:23:00.736Z,19.80
2018-09-14T18:25:30.324Z,19.80
2018-09-14T18:28:00.434Z,19.80
2018-09-14T18:30:30.206Z,19.60
2018-09-14T18:32:59.341Z,19.60
2018-09-14T18:35:31.005Z,19.50
2018-09-14T18:38:01.236Z,19.50
2018-09-14T18:40:31.891Z,19.50
2018-09-14T18:43:02.160Z,19.40
2018-09-14T18:45:35.935Z,19.30
2018-09-14T18:48:10.053Z,19.20
2018-09-14T18:50:40.136Z,19.00
2018-09-14T18:53:10.022Z,18.90
2018-09-14T18:55:56.665Z,18.80
2018-09-14T18:58:30.008Z,18.60
2018-09-14T19:01:00.125Z,18.50
2018-09-14T19:03:31.524Z,19.30
2018-09-14T19:06:01.388Z,18.70
2018-09-14T19:08:32.888Z,18.60
2018-09-14T19:11:02.791Z,18.30
2018-09-14T19:13:36.574Z,18.00
2018-09-14T19:16:08.034Z,18.00
2018-09-14T19:18:39.267Z,17.90
2018-09-14T19:21:09.382Z,18.00
2018-09-14T19:23:42.136Z,18.10
2018-09-14T19:26:17.995Z,17.90
2018-09-14T19:28:49.826Z,18.00
2018-09-14T19:31:21.393Z,17.00
2018-09-14T19:34:01.986Z,17.80
2018-09-14T19:36:33.312Z,17.60
2018-09-14T19:39:03.259Z,17.70
2018-09-14T19:41:33.748Z,17.70
2018-09-14T19:44:05.965Z,17.60
2018-09-14T19:46:35.729Z,17.60
2018-09-14T19:49:05.442Z,17.60
2018-09-14T19:51:38.526Z,17.60
2018-09-14T19:54:09.785Z,17.60
2018-09-14T19:56:39.759Z,17.60
2018-09-14T19:59:10.423Z,17.60
2018-09-14T20:01:44.606Z,18.30
2018-09-14T20:04:14.252Z,17.60
2018-09-14T20:09:22.385Z,17.70
2018-09-14T20:11:52.419Z,17.80
2018-09-14T20:14:29.397Z,17.60
2018-09-14T20:17:00.149Z,18.60
2018-09-14T20:19:30.569Z,19.20
2018-09-14T20:22:04.623Z,17.60
2018-09-14T20:24:34.616Z,17.40
2018-09-14T20:27:11.220Z,17.20
2018-09-14T20:29:43.655Z,16.80
2018-09-14T20:32:13.455Z,16.80
2018-09-14T20:34:47.408Z,16.30
2018-09-14T20:37:20.425Z,16.90
2018-09-14T20:39:53.544Z,16.90
2018-09-14T20:42:24.849Z,17.10
2018-09-14T20:44:57.363Z,17.60
2018-09-14T20:47:27.894Z,16.90
2018-09-14T20:49:57.588Z,17.00
2018-09-14T20:52:28.596Z,17.10
2018-09-14T20:54:58.240Z,17.10
2018-09-14T20:57:27.557Z,17.00
2018-09-14T20:59:57.900Z,17.00
2018-09-14T21:02:28.435Z,17.00
2018-09-14T21:04:59.340Z,17.20
2018-09-14T21:07:31.516Z,17.10
2018-09-14T21:10:03.204Z,17.00
2018-09-14T21:12:32.564Z,17.10
2018-09-14T21:15:01.841Z,17.20
2018-09-14T21:17:33.667Z,17.20
2018-09-14T21:20:06.579Z,17.40
2018-09-14T21:22:36.275Z,17.50
2018-09-14T21:25:06.797Z,17.40
2018-09-14T21:27:38.554Z,17.30
2018-09-14T21:30:16.142Z,17.40
2018-09-14T21:32:47.750Z,17.40
2018-09-14T21:35:17.875Z,17.20
2018-09-14T21:37:50.552Z,17.10
2018-09-14T21:40:23.359Z,17.20
2018-09-14T21:43:11.443Z,17.20
2018-09-14T21:45:45.281Z,17.10
2018-09-14T21:48:17.646Z,17.10
2018-09-14T21:50:49.189Z,17.20
2018-09-14T21:53:19.026Z,18.00
2018-09-14T21:55:51.824Z,17.20
2018-09-14T21:58:21.898Z,17.20
2018-09-14T22:00:57.997Z,17.20
2018-09-14T22:03:31.724Z,17.20
2018-09-14T22:06:02.385Z,17.30
2018-09-14T22:08:31.558Z,17.30
2018-09-14T22:11:01.621Z,17.30
2018-09-14T22:13:32.485Z,17.20
2018-09-14T22:16:01.737Z,17.20
2018-09-14T22:18:31.287Z,17.30
2018-09-14T22:21:04.192Z,17.30
2018-09-14T22:23:36.236Z,17.30
2018-09-14T22:26:06.376Z,17.20
2018-09-14T22:28:36.129Z,18.10
2018-09-14T22:31:06.199Z,17.10
2018-09-14T22:33:35.486Z,17.00
2018-09-14T22:36:05.374Z,17.00
2018-09-14T22:38:35.192Z,17.10
2018-09-14T22:41:04.504Z,17.10
2018-09-14T22:43:33.640Z,17.20
2018-09-14T22:46:03.197Z,17.20
2018-09-14T22:48:32.668Z,17.20
2018-09-14T22:51:02.275Z,17.20
2018-09-14T22:53:34.476Z,17.20
2018-09-14T22:56:07.346Z,17.20
2018-09-14T22:58:37.469Z,17.30
2018-09-14T23:01:12.309Z,17.90
2018-09-14T23:03:46.064Z,17.30
2018-09-14T23:06:18.462Z,17.30
2018-09-14T23:08:47.621Z,18.20
2018-09-14T23:11:20.359Z,15.80
2018-09-14T23:13:49.565Z,17.20
2018-09-14T23:16:19.834Z,17.10
2018-09-14T23:18:50.522Z,17.20
2018-09-14T23:21:20.914Z,18.20
2018-09-14T23:27:27.031Z,17.20
2018-09-14T23:29:56.354Z,17.10
2018-09-14T23:32:25.780Z,17.00
2018-09-14T23:34:55.461Z,16.90
2018-09-14T23:37:26.457Z,16.90
2018-09-14T23:39:56.032Z,16.90
2018-09-14T23:43:55.676Z,16.90
2018-09-14T23:46:24.781Z,17.00
2018-09-14T23:48:57.432Z,17.00
2018-09-14T23:51:27.887Z,18.80
2018-09-14T23:53:57.536Z,17.00
2018-09-14T23:56:26.620Z,17.00
2018-09-14T23:58:56.645Z,17.00
